sensor_id;sensor_type;location;lat;lon;timestamp;temperature;humidity
34640;DHT22;22600;48.186;11.526;2022-08-11T00:01:48;23.70;58.30
34640;DHT22;22600;48.186;11.526;2022-08-11T00:04:15;23.60;57.90
34640;DHT22;22600;48.186;11.526;2022-08-11T00:06:43;23.70;58.40
34640;DHT22;22600;48.186;11.526;2022-08-11T00:09:18;23.70;58.50
34640;DHT22;22600;48.186;11.526;2022-08-11T00:11:50;23.60;58.40
34640;DHT22;22600;48.186;11.526;2022-08-11T00:14:19;23.60;58.40
34640;DHT22;22600;48.186;11.526;2022-08-11T00:16:58;23.60;58.50
34640;DHT22;22600;48.186;11.526;2022-08-11T00:19:28;23.70;58.50
34640;DHT22;22600;48.186;11.526;2022-08-11T00:21:55;23.70;58.50
34640;DHT22;22600;48.186;11.526;2022-08-11T00:24:21;23.60;58.50
34640;DHT22;22600;48.186;11.526;2022-08-11T00:26:49;23.60;58.50
34640;DHT22;22600;48.186;11.526;2022-08-11T00:29:15;23.60;58.50
34640;DHT22;22600;48.186;11.526;2022-08-11T00:31:50;23.60;58.50
34640;DHT22;22600;48.186;11.526;2022-08-11T00:34:19;23.60;58.50
34640;DHT22;22600;48.186;11.526;2022-08-11T00:37:26;23.60;58.50
34640;DHT22;22600;48.186;11.526;2022-08-11T00:39:48;23.60;58.50
34640;DHT22;22600;48.186;11.526;2022-08-11T00:42:45;23.60;58.50
34640;DHT22;22600;48.186;11.526;2022-08-11T00:45:34;23.60;58.50
34640;DHT22;22600;48.186;11.526;2022-08-11T00:48:23;23.60;58.50
34640;DHT22;22600;48.186;11.526;2022-08-11T00:51:24;23.60;58.50
34640;DHT22;22600;48.186;11.526;2022-08-11T00:59:57;23.60;58.60
34640;DHT22;22600;48.186;11.526;2022-08-11T01:05:37;23.60;58.70
34640;DHT22;22600;48.186;11.526;2022-08-11T01:08:41;23.60;58.70
34640;DHT22;22600;48.186;11.526;2022-08-11T01:11:26;23.60;58.70
34640;DHT22;22600;48.186;11.526;2022-08-11T01:17:04;23.60;58.70
34640;DHT22;22600;48.186;11.526;2022-08-11T01:34:49;23.60;58.80
34640;DHT22;22600;48.186;11.526;2022-08-11T01:46:20;23.60;58.80
34640;DHT22;22600;48.186;11.526;2022-08-11T01:49:05;23.60;58.80
34640;DHT22;22600;48.186;11.526;2022-08-11T01:57:43;23.60;58.80
34640;DHT22;22600;48.186;11.526;2022-08-11T02:00:20;23.60;58.80
34640;DHT22;22600;48.186;11.526;2022-08-11T02:11:44;23.60;58.80
34640;DHT22;22600;48.186;11.526;2022-08-11T02:17:18;23.60;58.90
34640;DHT22;22600;48.186;11.526;2022-08-11T02:20:09;23.60;58.80
34640;DHT22;22600;48.186;11.526;2022-08-11T02:23:01;23.60;58.80
34640;DHT22;22600;48.186;11.526;2022-08-11T02:25:56;23.60;58.90
34640;DHT22;22600;48.186;11.526;2022-08-11T02:28:34;23.60;58.90
34640;DHT22;22600;48.186;11.526;2022-08-11T02:31:12;23.60;58.90
34640;DHT22;22600;48.186;11.526;2022-08-11T02:34:27;23.60;58.80
34640;DHT22;22600;48.186;11.526;2022-08-11T02:50:50;23.60;58.90
34640;DHT22;22600;48.186;11.526;2022-08-11T02:53:31;23.60;58.90
34640;DHT22;22600;48.186;11.526;2022-08-11T02:56:10;23.60;58.90
34640;DHT22;22600;48.186;11.526;2022-08-11T03:02:15;23.60;59.00
34640;DHT22;22600;48.186;11.526;2022-08-11T03:14:13;23.50;58.90
34640;DHT22;22600;48.186;11.526;2022-08-11T03:23:08;23.60;58.50
34640;DHT22;22600;48.186;11.526;2022-08-11T03:25:50;23.60;59.00
34640;DHT22;22600;48.186;11.526;2022-08-11T03:28:33;23.60;58.90
34640;DHT22;22600;48.186;11.526;2022-08-11T03:33:54;23.60;59.00
34640;DHT22;22600;48.186;11.526;2022-08-11T03:36:52;23.60;59.00
34640;DHT22;22600;48.186;11.526;2022-08-11T03:42:14;23.60;59.00
34640;DHT22;22600;48.186;11.526;2022-08-11T03:44:49;23.60;59.00
34640;DHT22;22600;48.186;11.526;2022-08-11T03:50:09;23.60;59.00
34640;DHT22;22600;48.186;11.526;2022-08-11T03:53:16;23.50;59.00
34640;DHT22;22600;48.186;11.526;2022-08-11T03:59:13;23.50;59.00
34640;DHT22;22600;48.186;11.526;2022-08-11T04:08:18;23.50;59.00
34640;DHT22;22600;48.186;11.526;2022-08-11T04:16:41;23.50;59.10
34640;DHT22;22600;48.186;11.526;2022-08-11T04:57:06;23.60;58.80
34640;DHT22;22600;48.186;11.526;2022-08-11T05:00:05;23.60;58.50
34640;DHT22;22600;48.186;11.526;2022-08-11T05:13:49;23.60;56.90
34640;DHT22;22600;48.186;11.526;2022-08-11T05:19:30;23.60;56.50
34640;DHT22;22600;48.186;11.526;2022-08-11T05:22:17;23.60;56.40
34640;DHT22;22600;48.186;11.526;2022-08-11T05:25:08;23.70;56.30
34640;DHT22;22600;48.186;11.526;2022-08-11T05:30:43;23.70;55.90
34640;DHT22;22600;48.186;11.526;2022-08-11T05:33:41;23.70;55.80
34640;DHT22;22600;48.186;11.526;2022-08-11T05:36:47;23.70;55.50
34640;DHT22;22600;48.186;11.526;2022-08-11T05:39:20;23.70;55.30
34640;DHT22;22600;48.186;11.526;2022-08-11T05:42:06;23.70;55.30
34640;DHT22;22600;48.186;11.526;2022-08-11T05:44:54;23.70;55.20
34640;DHT22;22600;48.186;11.526;2022-08-11T05:47:40;23.70;55.00
34640;DHT22;22600;48.186;11.526;2022-08-11T05:50:25;23.80;55.50
34640;DHT22;22600;48.186;11.526;2022-08-11T05:53:12;23.80;54.70
34640;DHT22;22600;48.186;11.526;2022-08-11T05:55:57;23.80;54.60
34640;DHT22;22600;48.186;11.526;2022-08-11T05:58:49;23.80;54.50
34640;DHT22;22600;48.186;11.526;2022-08-11T06:01:27;23.80;54.30
34640;DHT22;22600;48.186;11.526;2022-08-11T06:03:56;23.80;54.20
34640;DHT22;22600;48.186;11.526;2022-08-11T06:09:24;23.80;53.90
34640;DHT22;22600;48.186;11.526;2022-08-11T06:11:51;23.80;53.80
34640;DHT22;22600;48.186;11.526;2022-08-11T06:14:17;23.80;53.60
34640;DHT22;22600;48.186;11.526;2022-08-11T06:16:47;23.90;53.50
34640;DHT22;22600;48.186;11.526;2022-08-11T06:19:13;23.80;53.30
34640;DHT22;22600;48.186;11.526;2022-08-11T06:21:44;23.80;53.30
34640;DHT22;22600;48.186;11.526;2022-08-11T06:24:12;23.90;53.30
34640;DHT22;22600;48.186;11.526;2022-08-11T06:26:40;23.90;53.20
34640;DHT22;22600;48.186;11.526;2022-08-11T06:29:11;23.90;53.10
34640;DHT22;22600;48.186;11.526;2022-08-11T06:31:50;23.90;53.10
34640;DHT22;22600;48.186;11.526;2022-08-11T06:42:50;23.90;53.00
34640;DHT22;22600;48.186;11.526;2022-08-11T06:45:47;23.90;53.10
34640;DHT22;22600;48.186;11.526;2022-08-11T06:48:16;24.00;53.10
34640;DHT22;22600;48.186;11.526;2022-08-11T06:50:50;23.90;53.00
34640;DHT22;22600;48.186;11.526;2022-08-11T06:53:38;23.90;53.10
34640;DHT22;22600;48.186;11.526;2022-08-11T06:56:04;24.00;53.10
34640;DHT22;22600;48.186;11.526;2022-08-11T06:58:50;24.00;53.10
34640;DHT22;22600;48.186;11.526;2022-08-11T07:04:13;24.00;53.10
34640;DHT22;22600;48.186;11.526;2022-08-11T07:06:54;24.00;53.10
34640;DHT22;22600;48.186;11.526;2022-08-11T07:12:49;24.00;53.10
34640;DHT22;22600;48.186;11.526;2022-08-11T07:15:35;24.10;53.20
34640;DHT22;22600;48.186;11.526;2022-08-11T07:18:23;24.10;53.20
34640;DHT22;22600;48.186;11.526;2022-08-11T07:21:27;24.10;53.30
34640;DHT22;22600;48.186;11.526;2022-08-11T07:24:17;24.00;53.30
34640;DHT22;22600;48.186;11.526;2022-08-11T07:27:07;24.10;53.30
34640;DHT22;22600;48.186;11.526;2022-08-11T07:29:53;24.00;53.30
34640;DHT22;22600;48.186;11.526;2022-08-11T07:32:29;24.10;53.40
34640;DHT22;22600;48.186;11.526;2022-08-11T07:35:01;24.10;53.40
34640;DHT22;22600;48.186;11.526;2022-08-11T07:37:32;24.10;53.30
34640;DHT22;22600;48.186;11.526;2022-08-11T07:39:59;24.10;53.40
34640;DHT22;22600;48.186;11.526;2022-08-11T07:42:29;24.10;53.40
34640;DHT22;22600;48.186;11.526;2022-08-11T07:44:56;24.10;53.50
34640;DHT22;22600;48.186;11.526;2022-08-11T07:47:42;24.10;53.50
34640;DHT22;22600;48.186;11.526;2022-08-11T07:50:29;24.10;53.50
34640;DHT22;22600;48.186;11.526;2022-08-11T07:53:14;24.10;53.50
34640;DHT22;22600;48.186;11.526;2022-08-11T07:55:41;24.10;53.60
34640;DHT22;22600;48.186;11.526;2022-08-11T07:58:07;24.10;53.70
34640;DHT22;22600;48.186;11.526;2022-08-11T08:00:55;24.10;53.70
34640;DHT22;22600;48.186;11.526;2022-08-11T08:03:41;24.10;53.80
34640;DHT22;22600;48.186;11.526;2022-08-11T08:06:26;24.10;53.90
34640;DHT22;22600;48.186;11.526;2022-08-11T08:09:11;24.10;54.00
34640;DHT22;22600;48.186;11.526;2022-08-11T08:11:59;24.10;54.00
34640;DHT22;22600;48.186;11.526;2022-08-11T08:14:45;24.10;54.00
34640;DHT22;22600;48.186;11.526;2022-08-11T08:17:31;24.10;54.10
34640;DHT22;22600;48.186;11.526;2022-08-11T08:20:17;24.10;54.10
34640;DHT22;22600;48.186;11.526;2022-08-11T08:22:45;24.10;54.20
34640;DHT22;22600;48.186;11.526;2022-08-11T08:25:13;24.10;54.30
34640;DHT22;22600;48.186;11.526;2022-08-11T08:27:39;24.10;54.30
34640;DHT22;22600;48.186;11.526;2022-08-11T08:30:08;24.10;54.30
34640;DHT22;22600;48.186;11.526;2022-08-11T08:32:52;24.10;54.40
34640;DHT22;22600;48.186;11.526;2022-08-11T08:35:22;24.10;54.40
34640;DHT22;22600;48.186;11.526;2022-08-11T08:37:49;24.10;54.50
34640;DHT22;22600;48.186;11.526;2022-08-11T08:40:16;24.10;54.60
34640;DHT22;22600;48.186;11.526;2022-08-11T08:42:54;24.10;54.10
34640;DHT22;22600;48.186;11.526;2022-08-11T08:45:21;24.10;54.70
34640;DHT22;22600;48.186;11.526;2022-08-11T08:47:56;24.10;54.70
34640;DHT22;22600;48.186;11.526;2022-08-11T08:50:23;24.10;54.70
34640;DHT22;22600;48.186;11.526;2022-08-11T08:53:11;26.70;56.30
34640;DHT22;22600;48.186;11.526;2022-08-11T08:55:37;24.10;54.80
34640;DHT22;22600;48.186;11.526;2022-08-11T08:58:06;24.10;54.90
34640;DHT22;22600;48.186;11.526;2022-08-11T09:00:39;24.10;55.00
34640;DHT22;22600;48.186;11.526;2022-08-11T09:03:07;24.10;55.00
34640;DHT22;22600;48.186;11.526;2022-08-11T09:05:33;24.10;55.00
34640;DHT22;22600;48.186;11.526;2022-08-11T09:07:58;24.10;55.10
34640;DHT22;22600;48.186;11.526;2022-08-11T09:10:25;24.00;55.10
34640;DHT22;22600;48.186;11.526;2022-08-11T09:12:52;24.00;55.20
34640;DHT22;22600;48.186;11.526;2022-08-11T09:15:17;24.00;55.30
34640;DHT22;22600;48.186;11.526;2022-08-11T09:17:47;24.00;55.40
34640;DHT22;22600;48.186;11.526;2022-08-11T09:20:20;24.00;55.50
34640;DHT22;22600;48.186;11.526;2022-08-11T09:22:47;24.00;55.50
34640;DHT22;22600;48.186;11.526;2022-08-11T09:25:33;24.00;55.60
34640;DHT22;22600;48.186;11.526;2022-08-11T09:28:20;23.90;55.60
34640;DHT22;22600;48.186;11.526;2022-08-11T09:30:48;23.80;55.60
34640;DHT22;22600;48.186;11.526;2022-08-11T09:33:18;23.90;55.60
34640;DHT22;22600;48.186;11.526;2022-08-11T09:35:46;24.00;55.60
34640;DHT22;22600;48.186;11.526;2022-08-11T09:38:14;23.90;55.60
34640;DHT22;22600;48.186;11.526;2022-08-11T09:40:59;22.20;54.80
34640;DHT22;22600;48.186;11.526;2022-08-11T09:43:27;24.00;55.70
34640;DHT22;22600;48.186;11.526;2022-08-11T09:46:12;23.90;55.70
34640;DHT22;22600;48.186;11.526;2022-08-11T09:48:42;23.90;55.70
34640;DHT22;22600;48.186;11.526;2022-08-11T09:51:09;23.90;55.70
34640;DHT22;22600;48.186;11.526;2022-08-11T09:53:40;23.90;55.70
34640;DHT22;22600;48.186;11.526;2022-08-11T09:56:10;23.90;55.80
34640;DHT22;22600;48.186;11.526;2022-08-11T09:58:56;23.90;55.80
34640;DHT22;22600;48.186;11.526;2022-08-11T10:01:25;23.80;55.80
34640;DHT22;22600;48.186;11.526;2022-08-11T10:03:57;23.90;55.90
34640;DHT22;22600;48.186;11.526;2022-08-11T10:06:26;23.90;55.90
34640;DHT22;22600;48.186;11.526;2022-08-11T10:09:13;23.90;55.90
34640;DHT22;22600;48.186;11.526;2022-08-11T10:11:41;23.90;56.00
34640;DHT22;22600;48.186;11.526;2022-08-11T10:14:08;23.90;56.00
34640;DHT22;22600;48.186;11.526;2022-08-11T10:16:53;23.80;56.00
34640;DHT22;22600;48.186;11.526;2022-08-11T10:19:19;21.30;54.90
34640;DHT22;22600;48.186;11.526;2022-08-11T10:21:55;23.80;56.10
34640;DHT22;22600;48.186;11.526;2022-08-11T10:24:40;23.80;56.20
34640;DHT22;22600;48.186;11.526;2022-08-11T10:27:27;23.80;56.20
34640;DHT22;22600;48.186;11.526;2022-08-11T10:29:53;23.80;56.20
34640;DHT22;22600;48.186;11.526;2022-08-11T10:32:38;23.70;56.20
34640;DHT22;22600;48.186;11.526;2022-08-11T10:35:22;23.80;56.30
34640;DHT22;22600;48.186;11.526;2022-08-11T10:37:51;23.80;56.60
34640;DHT22;22600;48.186;11.526;2022-08-11T10:40:19;23.80;56.30
34640;DHT22;22600;48.186;11.526;2022-08-11T10:42:54;23.80;56.40
34640;DHT22;22600;48.186;11.526;2022-08-11T10:45:30;23.80;56.40
34640;DHT22;22600;48.186;11.526;2022-08-11T10:48:16;23.80;56.40
34640;DHT22;22600;48.186;11.526;2022-08-11T10:50:46;23.70;56.40
34640;DHT22;22600;48.186;11.526;2022-08-11T10:53:33;23.80;56.40
34640;DHT22;22600;48.186;11.526;2022-08-11T10:56:18;23.80;56.50
34640;DHT22;22600;48.186;11.526;2022-08-11T10:59:05;23.80;56.50
34640;DHT22;22600;48.186;11.526;2022-08-11T11:01:37;23.80;56.50
34640;DHT22;22600;48.186;11.526;2022-08-11T11:04:15;23.80;56.60
34640;DHT22;22600;48.186;11.526;2022-08-11T11:09:26;23.70;56.80
34640;DHT22;22600;48.186;11.526;2022-08-11T11:11:59;23.70;56.90
34640;DHT22;22600;48.186;11.526;2022-08-11T11:14:43;23.70;56.80
34640;DHT22;22600;48.186;11.526;2022-08-11T11:17:36;23.60;56.80
34640;DHT22;22600;48.186;11.526;2022-08-11T11:20:34;23.80;56.90
34640;DHT22;22600;48.186;11.526;2022-08-11T11:23:07;23.90;56.90
34640;DHT22;22600;48.186;11.526;2022-08-11T11:25:45;23.70;56.80
34640;DHT22;22600;48.186;11.526;2022-08-11T11:28:49;23.70;56.80
34640;DHT22;22600;48.186;11.526;2022-08-11T11:34:22;23.70;56.90
34640;DHT22;22600;48.186;11.526;2022-08-11T11:36:56;23.70;56.90
34640;DHT22;22600;48.186;11.526;2022-08-11T11:39:25;23.70;56.90
34640;DHT22;22600;48.186;11.526;2022-08-11T11:41:58;23.70;56.90
34640;DHT22;22600;48.186;11.526;2022-08-11T11:44:24;23.70;56.90
34640;DHT22;22600;48.186;11.526;2022-08-11T11:46:51;23.70;56.90
34640;DHT22;22600;48.186;11.526;2022-08-11T11:49:19;23.70;56.90
34640;DHT22;22600;48.186;11.526;2022-08-11T11:51:47;23.70;56.90
34640;DHT22;22600;48.186;11.526;2022-08-11T11:54:21;23.70;56.90
34640;DHT22;22600;48.186;11.526;2022-08-11T11:56:49;23.70;57.00
34640;DHT22;22600;48.186;11.526;2022-08-11T11:59:21;23.70;57.00
34640;DHT22;22600;48.186;11.526;2022-08-11T12:02:07;23.70;57.00
34640;DHT22;22600;48.186;11.526;2022-08-11T12:04:35;23.70;57.00
34640;DHT22;22600;48.186;11.526;2022-08-11T12:07:02;23.70;57.00
34640;DHT22;22600;48.186;11.526;2022-08-11T12:09:48;23.70;57.00
34640;DHT22;22600;48.186;11.526;2022-08-11T12:12:14;23.70;57.00
34640;DHT22;22600;48.186;11.526;2022-08-11T12:14:59;23.70;57.00
34640;DHT22;22600;48.186;11.526;2022-08-11T12:17:25;23.70;57.00
34640;DHT22;22600;48.186;11.526;2022-08-11T12:19:51;23.70;57.00
34640;DHT22;22600;48.186;11.526;2022-08-11T12:22:17;23.70;56.50
34640;DHT22;22600;48.186;11.526;2022-08-11T12:25:02;23.70;57.10
34640;DHT22;22600;48.186;11.526;2022-08-11T12:27:47;23.70;57.10
34640;DHT22;22600;48.186;11.526;2022-08-11T12:30:13;23.70;57.00
34640;DHT22;22600;48.186;11.526;2022-08-11T12:32:40;23.70;57.10
34640;DHT22;22600;48.186;11.526;2022-08-11T12:35:07;23.70;57.00
34640;DHT22;22600;48.186;11.526;2022-08-11T12:37:44;23.70;57.10
34640;DHT22;22600;48.186;11.526;2022-08-11T12:40:15;23.70;57.10
34640;DHT22;22600;48.186;11.526;2022-08-11T12:43:03;23.70;57.10
34640;DHT22;22600;48.186;11.526;2022-08-11T12:45:53;23.70;57.10
34640;DHT22;22600;48.186;11.526;2022-08-11T12:48:23;23.70;57.20
34640;DHT22;22600;48.186;11.526;2022-08-11T12:51:17;23.70;57.20
34640;DHT22;22600;48.186;11.526;2022-08-11T12:57:02;23.70;57.40
34640;DHT22;22600;48.186;11.526;2022-08-11T12:59:47;23.70;57.50
34640;DHT22;22600;48.186;11.526;2022-08-11T13:02:33;23.60;57.50
34640;DHT22;22600;48.186;11.526;2022-08-11T13:05:19;23.70;57.60
34640;DHT22;22600;48.186;11.526;2022-08-11T13:07:46;23.70;57.60
34640;DHT22;22600;48.186;11.526;2022-08-11T13:10:14;23.70;57.70
34640;DHT22;22600;48.186;11.526;2022-08-11T13:13:02;23.70;57.70
34640;DHT22;22600;48.186;11.526;2022-08-11T13:15:28;23.70;57.60
34640;DHT22;22600;48.186;11.526;2022-08-11T13:17:54;23.70;57.50
34640;DHT22;22600;48.186;11.526;2022-08-11T13:20:22;23.70;57.50
34640;DHT22;22600;48.186;11.526;2022-08-11T13:22:50;23.70;57.40
34640;DHT22;22600;48.186;11.526;2022-08-11T13:25:18;23.70;57.40
34640;DHT22;22600;48.186;11.526;2022-08-11T13:27:46;23.70;57.30
34640;DHT22;22600;48.186;11.526;2022-08-11T13:30:16;23.80;57.00
34640;DHT22;22600;48.186;11.526;2022-08-11T13:33:02;23.80;56.50
34640;DHT22;22600;48.186;11.526;2022-08-11T13:35:30;23.70;55.90
34640;DHT22;22600;48.186;11.526;2022-08-11T13:37:57;23.70;56.10
34640;DHT22;22600;48.186;11.526;2022-08-11T13:40:25;23.80;56.40
34640;DHT22;22600;48.186;11.526;2022-08-11T13:42:51;23.80;56.50
34640;DHT22;22600;48.186;11.526;2022-08-11T13:45:18;23.80;56.50
34640;DHT22;22600;48.186;11.526;2022-08-11T13:47:46;23.80;56.50
34640;DHT22;22600;48.186;11.526;2022-08-11T13:50:13;23.70;56.50
34640;DHT22;22600;48.186;11.526;2022-08-11T13:52:40;23.80;56.60
34640;DHT22;22600;48.186;11.526;2022-08-11T13:55:09;23.70;56.50
34640;DHT22;22600;48.186;11.526;2022-08-11T13:57:36;23.80;56.60
34640;DHT22;22600;48.186;11.526;2022-08-11T14:00:05;23.70;56.60
34640;DHT22;22600;48.186;11.526;2022-08-11T14:02:37;23.70;56.60
34640;DHT22;22600;48.186;11.526;2022-08-11T14:05:14;23.70;56.70
34640;DHT22;22600;48.186;11.526;2022-08-11T14:08:01;23.70;56.70
34640;DHT22;22600;48.186;11.526;2022-08-11T14:10:30;23.70;56.70
34640;DHT22;22600;48.186;11.526;2022-08-11T14:13:00;23.70;56.70
34640;DHT22;22600;48.186;11.526;2022-08-11T14:15:46;23.70;56.70
34640;DHT22;22600;48.186;11.526;2022-08-11T14:18:27;23.70;56.80
34640;DHT22;22600;48.186;11.526;2022-08-11T14:20:59;23.70;56.80
34640;DHT22;22600;48.186;11.526;2022-08-11T14:23:45;23.70;56.80
34640;DHT22;22600;48.186;11.526;2022-08-11T14:26:12;23.70;56.80
34640;DHT22;22600;48.186;11.526;2022-08-11T14:28:48;23.70;56.90
34640;DHT22;22600;48.186;11.526;2022-08-11T14:31:17;23.80;56.90
34640;DHT22;22600;48.186;11.526;2022-08-11T14:33:44;23.70;56.90
34640;DHT22;22600;48.186;11.526;2022-08-11T14:36:11;23.70;56.90
34640;DHT22;22600;48.186;11.526;2022-08-11T14:38:38;23.70;57.00
34640;DHT22;22600;48.186;11.526;2022-08-11T14:41:06;23.60;56.90
34640;DHT22;22600;48.186;11.526;2022-08-11T14:43:52;23.70;57.00
34640;DHT22;22600;48.186;11.526;2022-08-11T14:46:37;23.70;57.10
34640;DHT22;22600;48.186;11.526;2022-08-11T14:49:22;23.70;57.10
34640;DHT22;22600;48.186;11.526;2022-08-11T14:51:48;23.70;57.10
34640;DHT22;22600;48.186;11.526;2022-08-11T14:54:18;23.70;57.10
34640;DHT22;22600;48.186;11.526;2022-08-11T14:57:02;23.70;57.20
34640;DHT22;22600;48.186;11.526;2022-08-11T14:59:28;23.70;57.20
34640;DHT22;22600;48.186;11.526;2022-08-11T15:01:54;23.60;57.10
34640;DHT22;22600;48.186;11.526;2022-08-11T15:04:39;23.70;57.20
34640;DHT22;22600;48.186;11.526;2022-08-11T15:07:05;23.70;57.20
34640;DHT22;22600;48.186;11.526;2022-08-11T15:09:31;23.50;57.20
34640;DHT22;22600;48.186;11.526;2022-08-11T15:11:58;23.60;57.30
34640;DHT22;22600;48.186;11.526;2022-08-11T15:14:36;23.70;57.30
34640;DHT22;22600;48.186;11.526;2022-08-11T15:17:21;23.60;57.30
34640;DHT22;22600;48.186;11.526;2022-08-11T15:19:48;23.60;57.30
34640;DHT22;22600;48.186;11.526;2022-08-11T15:22:34;23.60;56.90
34640;DHT22;22600;48.186;11.526;2022-08-11T15:25:18;23.60;57.40
34640;DHT22;22600;48.186;11.526;2022-08-11T15:27:47;23.60;57.40
34640;DHT22;22600;48.186;11.526;2022-08-11T15:30:34;23.60;57.60
34640;DHT22;22600;48.186;11.526;2022-08-11T15:33:19;23.60;57.70
34640;DHT22;22600;48.186;11.526;2022-08-11T15:36:07;23.70;57.70
34640;DHT22;22600;48.186;11.526;2022-08-11T15:39:12;23.70;57.80
34640;DHT22;22600;48.186;11.526;2022-08-11T15:41:44;23.70;57.90
34640;DHT22;22600;48.186;11.526;2022-08-11T15:44:33;23.60;57.90
34640;DHT22;22600;48.186;11.526;2022-08-11T15:47:26;23.70;58.10
34640;DHT22;22600;48.186;11.526;2022-08-11T15:49:54;23.70;58.10
34640;DHT22;22600;48.186;11.526;2022-08-11T15:52:29;23.60;58.20
34640;DHT22;22600;48.186;11.526;2022-08-11T15:54:56;23.70;58.30
34640;DHT22;22600;48.186;11.526;2022-08-11T15:57:27;23.60;58.30
34640;DHT22;22600;48.186;11.526;2022-08-11T16:00:13;23.60;58.30
34640;DHT22;22600;48.186;11.526;2022-08-11T16:02:59;23.70;58.30
34640;DHT22;22600;48.186;11.526;2022-08-11T16:05:44;23.70;58.30
34640;DHT22;22600;48.186;11.526;2022-08-11T16:08:13;23.60;58.30
34640;DHT22;22600;48.186;11.526;2022-08-11T16:10:40;23.70;58.40
34640;DHT22;22600;48.186;11.526;2022-08-11T16:13:08;23.60;58.40
34640;DHT22;22600;48.186;11.526;2022-08-11T16:15:41;23.70;58.50
34640;DHT22;22600;48.186;11.526;2022-08-11T16:18:33;23.70;58.50
34640;DHT22;22600;48.186;11.526;2022-08-11T16:21:13;23.70;58.50
34640;DHT22;22600;48.186;11.526;2022-08-11T16:23:42;23.70;58.50
34640;DHT22;22600;48.186;11.526;2022-08-11T16:26:09;23.70;58.50
34640;DHT22;22600;48.186;11.526;2022-08-11T16:28:37;23.70;58.60
34640;DHT22;22600;48.186;11.526;2022-08-11T16:31:06;23.70;58.60
34640;DHT22;22600;48.186;11.526;2022-08-11T16:33:36;23.70;58.60
34640;DHT22;22600;48.186;11.526;2022-08-11T16:36:03;23.70;58.60
34640;DHT22;22600;48.186;11.526;2022-08-11T16:38:48;23.70;58.60
34640;DHT22;22600;48.186;11.526;2022-08-11T16:41:17;23.70;58.60
34640;DHT22;22600;48.186;11.526;2022-08-11T16:44:06;23.70;58.60
34640;DHT22;22600;48.186;11.526;2022-08-11T16:46:51;25.80;59.80
34640;DHT22;22600;48.186;11.526;2022-08-11T16:49:26;23.70;58.60
34640;DHT22;22600;48.186;11.526;2022-08-11T16:51:53;23.70;58.70
34640;DHT22;22600;48.186;11.526;2022-08-11T16:54:19;23.70;58.70
34640;DHT22;22600;48.186;11.526;2022-08-11T16:56:50;23.70;58.80
34640;DHT22;22600;48.186;11.526;2022-08-11T16:59:21;23.70;58.80
34640;DHT22;22600;48.186;11.526;2022-08-11T17:07:19;23.70;58.80
34640;DHT22;22600;48.186;11.526;2022-08-11T17:10:05;23.70;58.90
34640;DHT22;22600;48.186;11.526;2022-08-11T17:12:50;23.70;58.80
34640;DHT22;22600;48.186;11.526;2022-08-11T17:15:40;23.70;58.90
34640;DHT22;22600;48.186;11.526;2022-08-11T17:18:25;23.70;58.90
34640;DHT22;22600;48.186;11.526;2022-08-11T17:21:08;23.70;58.90
34640;DHT22;22600;48.186;11.526;2022-08-11T17:23:39;23.70;58.90
34640;DHT22;22600;48.186;11.526;2022-08-11T17:26:38;23.70;58.90
34640;DHT22;22600;48.186;11.526;2022-08-11T17:29:29;23.70;58.90
34640;DHT22;22600;48.186;11.526;2022-08-11T17:32:00;23.70;59.00
34640;DHT22;22600;48.186;11.526;2022-08-11T17:34:45;23.70;59.00
34640;DHT22;22600;48.186;11.526;2022-08-11T17:37:31;23.70;59.00
34640;DHT22;22600;48.186;11.526;2022-08-11T17:40:00;23.70;58.90
34640;DHT22;22600;48.186;11.526;2022-08-11T17:42:29;23.70;58.90
34640;DHT22;22600;48.186;11.526;2022-08-11T17:45:16;23.70;59.00
34640;DHT22;22600;48.186;11.526;2022-08-11T17:48:02;23.70;58.50
34640;DHT22;22600;48.186;11.526;2022-08-11T17:50:48;23.70;59.00
34640;DHT22;22600;48.186;11.526;2022-08-11T17:53:15;24.20;59.30
34640;DHT22;22600;48.186;11.526;2022-08-11T17:56:01;22.70;58.60
34640;DHT22;22600;48.186;11.526;2022-08-11T17:58:47;23.70;59.10
34640;DHT22;22600;48.186;11.526;2022-08-11T18:01:34;23.70;59.10
34640;DHT22;22600;48.186;11.526;2022-08-11T18:04:05;23.70;59.10
34640;DHT22;22600;48.186;11.526;2022-08-11T18:06:32;23.70;59.10
34640;DHT22;22600;48.186;11.526;2022-08-11T18:08:59;23.70;59.20
34640;DHT22;22600;48.186;11.526;2022-08-11T18:11:45;23.70;59.20
34640;DHT22;22600;48.186;11.526;2022-08-11T18:14:32;23.70;59.20
34640;DHT22;22600;48.186;11.526;2022-08-11T18:17:17;23.60;59.10
34640;DHT22;22600;48.186;11.526;2022-08-11T18:20:01;23.70;59.20
34640;DHT22;22600;48.186;11.526;2022-08-11T18:22:47;23.70;59.20
34640;DHT22;22600;48.186;11.526;2022-08-11T18:25:37;23.70;59.20
34640;DHT22;22600;48.186;11.526;2022-08-11T18:28:25;23.60;59.10
34640;DHT22;22600;48.186;11.526;2022-08-11T18:31:12;23.70;59.20
34640;DHT22;22600;48.186;11.526;2022-08-11T18:34:02;23.70;59.30
34640;DHT22;22600;48.186;11.526;2022-08-11T18:37:22;23.70;59.20
34640;DHT22;22600;48.186;11.526;2022-08-11T18:40:03;23.70;59.30
34640;DHT22;22600;48.186;11.526;2022-08-11T18:42:48;23.70;59.30
34640;DHT22;22600;48.186;11.526;2022-08-11T18:45:35;23.70;59.30
34640;DHT22;22600;48.186;11.526;2022-08-11T18:48:23;23.70;59.30
34640;DHT22;22600;48.186;11.526;2022-08-11T18:51:08;23.60;59.20
34640;DHT22;22600;48.186;11.526;2022-08-11T18:53:59;23.70;59.30
34640;DHT22;22600;48.186;11.526;2022-08-11T18:56:45;23.60;59.30
34640;DHT22;22600;48.186;11.526;2022-08-11T18:59:34;23.60;59.20
34640;DHT22;22600;48.186;11.526;2022-08-11T19:02:21;23.60;59.20
34640;DHT22;22600;48.186;11.526;2022-08-11T19:05:07;23.70;59.30
34640;DHT22;22600;48.186;11.526;2022-08-11T19:07:53;23.70;59.30
34640;DHT22;22600;48.186;11.526;2022-08-11T19:10:38;23.70;59.30
34640;DHT22;22600;48.186;11.526;2022-08-11T19:13:23;23.70;59.30
34640;DHT22;22600;48.186;11.526;2022-08-11T19:16:09;23.60;59.30
34640;DHT22;22600;48.186;11.526;2022-08-11T19:18:54;23.60;59.40
34640;DHT22;22600;48.186;11.526;2022-08-11T19:21:39;23.60;59.40
34640;DHT22;22600;48.186;11.526;2022-08-11T19:24:25;23.70;59.40
34640;DHT22;22600;48.186;11.526;2022-08-11T19:27:11;23.70;59.40
34640;DHT22;22600;48.186;11.526;2022-08-11T19:29:57;23.70;59.40
34640;DHT22;22600;48.186;11.526;2022-08-11T19:32:44;23.70;59.40
34640;DHT22;22600;48.186;11.526;2022-08-11T19:35:29;23.60;59.40
34640;DHT22;22600;48.186;11.526;2022-08-11T19:38:15;23.60;59.40